sensor_id;sensor_type;location;lat;lon;timestamp;P1;durP1;ratioP1;P2;durP2;ratioP2
4694;SDS011;2361;49.540;8.390;2024-02-28T00:00:25;20.00;;;12.17;;
4694;SDS011;2361;49.540;8.390;2024-02-28T00:02:47;20.52;;;12.93;;
4694;SDS011;2361;49.540;8.390;2024-02-28T00:05:09;20.17;;;12.32;;
4694;SDS011;2361;49.540;8.390;2024-02-28T00:07:31;20.73;;;13.00;;
4694;SDS011;2361;49.540;8.390;2024-02-28T00:09:53;21.60;;;13.30;;
4694;SDS011;2361;49.540;8.390;2024-02-28T00:12:18;24.45;;;13.80;;
4694;SDS011;2361;49.540;8.390;2024-02-28T00:14:40;23.85;;;14.30;;
4694;SDS011;2361;49.540;8.390;2024-02-28T00:17:02;24.02;;;14.50;;
4694;SDS011;2361;49.540;8.390;2024-02-28T00:19:24;22.92;;;15.00;;
4694;SDS011;2361;49.540;8.390;2024-02-28T00:21:46;24.13;;;14.13;;
4694;SDS011;2361;49.540;8.390;2024-02-28T00:24:08;24.23;;;13.90;;
4694;SDS011;2361;49.540;8.390;2024-02-28T00:26:31;24.50;;;14.50;;
4694;SDS011;2361;49.540;8.390;2024-02-28T00:29:02;23.70;;;14.02;;
4694;SDS011;2361;49.540;8.390;2024-02-28T00:31:25;24.83;;;14.00;;
4694;SDS011;2361;49.540;8.390;2024-02-28T00:33:56;24.40;;;13.65;;
4694;SDS011;2361;49.540;8.390;2024-02-28T00:36:18;25.58;;;15.70;;
4694;SDS011;2361;49.540;8.390;2024-02-28T00:38:40;25.73;;;14.88;;
4694;SDS011;2361;49.540;8.390;2024-02-28T00:41:05;25.17;;;14.50;;
4694;SDS011;2361;49.540;8.390;2024-02-28T00:43:27;24.42;;;14.95;;
4694;SDS011;2361;49.540;8.390;2024-02-28T00:45:49;27.13;;;16.20;;
4694;SDS011;2361;49.540;8.390;2024-02-28T00:48:11;27.80;;;15.80;;
4694;SDS011;2361;49.540;8.390;2024-02-28T00:50:33;28.48;;;15.45;;
4694;SDS011;2361;49.540;8.390;2024-02-28T00:52:55;28.42;;;16.33;;
4694;SDS011;2361;49.540;8.390;2024-02-28T00:55:17;27.85;;;16.05;;
4694;SDS011;2361;49.540;8.390;2024-02-28T00:57:40;26.55;;;15.60;;
4694;SDS011;2361;49.540;8.390;2024-02-28T01:00:02;27.45;;;15.80;;
4694;SDS011;2361;49.540;8.390;2024-02-28T01:02:26;29.42;;;16.15;;
4694;SDS011;2361;49.540;8.390;2024-02-28T01:04:48;27.50;;;15.90;;
4694;SDS011;2361;49.540;8.390;2024-02-28T01:07:13;28.10;;;16.20;;
4694;SDS011;2361;49.540;8.390;2024-02-28T01:09:35;30.42;;;16.30;;
4694;SDS011;2361;49.540;8.390;2024-02-28T01:11:57;29.20;;;15.95;;
4694;SDS011;2361;49.540;8.390;2024-02-28T01:14:20;31.58;;;17.27;;
4694;SDS011;2361;49.540;8.390;2024-02-28T01:16:42;29.50;;;17.10;;
4694;SDS011;2361;49.540;8.390;2024-02-28T01:19:04;30.63;;;16.83;;
4694;SDS011;2361;49.540;8.390;2024-02-28T01:21:26;29.15;;;16.10;;
4694;SDS011;2361;49.540;8.390;2024-02-28T01:23:48;32.22;;;16.60;;
4694;SDS011;2361;49.540;8.390;2024-02-28T01:26:10;29.53;;;16.83;;
4694;SDS011;2361;49.540;8.390;2024-02-28T01:28:32;31.05;;;16.73;;
4694;SDS011;2361;49.540;8.390;2024-02-28T01:30:58;31.75;;;17.50;;
4694;SDS011;2361;49.540;8.390;2024-02-28T01:33:21;30.38;;;17.30;;
4694;SDS011;2361;49.540;8.390;2024-02-28T01:35:43;30.50;;;15.95;;
4694;SDS011;2361;49.540;8.390;2024-02-28T01:38:05;29.80;;;16.87;;
4694;SDS011;2361;49.540;8.390;2024-02-28T01:40:27;31.35;;;17.67;;
4694;SDS011;2361;49.540;8.390;2024-02-28T01:42:49;32.65;;;17.40;;
4694;SDS011;2361;49.540;8.390;2024-02-28T01:45:13;33.75;;;17.75;;
4694;SDS011;2361;49.540;8.390;2024-02-28T01:47:36;31.75;;;17.65;;
4694;SDS011;2361;49.540;8.390;2024-02-28T01:49:58;31.15;;;17.35;;
4694;SDS011;2361;49.540;8.390;2024-02-28T01:52:20;33.70;;;18.10;;
4694;SDS011;2361;49.540;8.390;2024-02-28T01:54:43;30.30;;;16.00;;
4694;SDS011;2361;49.540;8.390;2024-02-28T01:57:05;31.92;;;17.70;;
4694;SDS011;2361;49.540;8.390;2024-02-28T01:59:28;35.28;;;16.33;;
4694;SDS011;2361;49.540;8.390;2024-02-28T02:01:52;31.05;;;16.23;;
4694;SDS011;2361;49.540;8.390;2024-02-28T02:04:15;32.70;;;16.35;;
4694;SDS011;2361;49.540;8.390;2024-02-28T02:06:37;29.33;;;15.65;;
4694;SDS011;2361;49.540;8.390;2024-02-28T02:09:06;33.38;;;16.63;;
4694;SDS011;2361;49.540;8.390;2024-02-28T02:11:28;30.17;;;16.02;;
4694;SDS011;2361;49.540;8.390;2024-02-28T02:13:51;28.98;;;16.13;;
4694;SDS011;2361;49.540;8.390;2024-02-28T02:16:13;32.65;;;15.82;;
4694;SDS011;2361;49.540;8.390;2024-02-28T02:18:35;30.73;;;15.43;;
4694;SDS011;2361;49.540;8.390;2024-02-28T02:21:02;28.55;;;14.95;;
4694;SDS011;2361;49.540;8.390;2024-02-28T02:23:26;30.25;;;15.80;;
4694;SDS011;2361;49.540;8.390;2024-02-28T02:25:48;30.92;;;16.10;;
4694;SDS011;2361;49.540;8.390;2024-02-28T02:28:10;31.42;;;16.10;;
4694;SDS011;2361;49.540;8.390;2024-02-28T02:30:32;31.50;;;16.10;;
4694;SDS011;2361;49.540;8.390;2024-02-28T02:32:54;30.38;;;16.00;;
4694;SDS011;2361;49.540;8.390;2024-02-28T02:35:16;33.58;;;16.20;;
4694;SDS011;2361;49.540;8.390;2024-02-28T02:37:42;30.83;;;16.20;;
4694;SDS011;2361;49.540;8.390;2024-02-28T02:40:07;30.90;;;15.97;;
4694;SDS011;2361;49.540;8.390;2024-02-28T02:42:30;30.52;;;15.60;;
4694;SDS011;2361;49.540;8.390;2024-02-28T02:44:52;32.92;;;16.70;;
4694;SDS011;2361;49.540;8.390;2024-02-28T02:47:14;30.42;;;15.95;;
4694;SDS011;2361;49.540;8.390;2024-02-28T02:49:36;30.00;;;16.27;;
4694;SDS011;2361;49.540;8.390;2024-02-28T02:51:58;32.55;;;16.27;;
4694;SDS011;2361;49.540;8.390;2024-02-28T02:54:20;31.23;;;16.03;;
4694;SDS011;2361;49.540;8.390;2024-02-28T02:56:42;33.22;;;17.10;;
4694;SDS011;2361;49.540;8.390;2024-02-28T02:59:04;29.98;;;15.40;;
4694;SDS011;2361;49.540;8.390;2024-02-28T03:01:26;32.28;;;15.98;;
4694;SDS011;2361;49.540;8.390;2024-02-28T03:03:48;29.70;;;15.82;;
4694;SDS011;2361;49.540;8.390;2024-02-28T03:06:10;31.30;;;15.47;;
4694;SDS011;2361;49.540;8.390;2024-02-28T03:08:32;29.85;;;15.00;;
4694;SDS011;2361;49.540;8.390;2024-02-28T03:10:54;30.02;;;15.40;;
4694;SDS011;2361;49.540;8.390;2024-02-28T03:13:16;31.00;;;16.05;;
4694;SDS011;2361;49.540;8.390;2024-02-28T03:15:39;34.23;;;15.90;;
4694;SDS011;2361;49.540;8.390;2024-02-28T03:18:01;33.58;;;15.93;;
4694;SDS011;2361;49.540;8.390;2024-02-28T03:20:24;33.17;;;16.05;;
4694;SDS011;2361;49.540;8.390;2024-02-28T03:22:47;31.05;;;15.82;;
4694;SDS011;2361;49.540;8.390;2024-02-28T03:25:09;31.80;;;16.43;;
4694;SDS011;2361;49.540;8.390;2024-02-28T03:27:31;32.53;;;16.42;;
4694;SDS011;2361;49.540;8.390;2024-02-28T03:29:53;33.92;;;17.33;;
4694;SDS011;2361;49.540;8.390;2024-02-28T03:32:15;34.78;;;17.10;;
4694;SDS011;2361;49.540;8.390;2024-02-28T03:34:37;32.13;;;15.60;;
4694;SDS011;2361;49.540;8.390;2024-02-28T03:36:59;34.13;;;15.85;;
4694;SDS011;2361;49.540;8.390;2024-02-28T03:39:24;30.70;;;15.32;;
4694;SDS011;2361;49.540;8.390;2024-02-28T03:41:46;29.40;;;13.82;;
4694;SDS011;2361;49.540;8.390;2024-02-28T03:44:08;31.58;;;14.70;;
4694;SDS011;2361;49.540;8.390;2024-02-28T03:46:29;33.95;;;14.82;;
4694;SDS011;2361;49.540;8.390;2024-02-28T03:48:52;30.75;;;14.93;;
4694;SDS011;2361;49.540;8.390;2024-02-28T03:51:13;31.38;;;15.15;;
4694;SDS011;2361;49.540;8.390;2024-02-28T03:53:36;29.23;;;14.85;;
4694;SDS011;2361;49.540;8.390;2024-02-28T03:55:57;32.28;;;15.13;;
4694;SDS011;2361;49.540;8.390;2024-02-28T03:58:22;32.87;;;15.10;;
4694;SDS011;2361;49.540;8.390;2024-02-28T04:00:45;31.13;;;15.65;;
4694;SDS011;2361;49.540;8.390;2024-02-28T04:03:07;32.35;;;15.25;;
4694;SDS011;2361;49.540;8.390;2024-02-28T04:05:29;32.92;;;16.55;;
4694;SDS011;2361;49.540;8.390;2024-02-28T04:07:51;39.35;;;18.25;;
4694;SDS011;2361;49.540;8.390;2024-02-28T04:10:13;34.28;;;17.20;;
4694;SDS011;2361;49.540;8.390;2024-02-28T04:12:36;35.55;;;17.40;;
4694;SDS011;2361;49.540;8.390;2024-02-28T04:14:58;34.30;;;17.10;;
4694;SDS011;2361;49.540;8.390;2024-02-28T04:17:21;33.90;;;16.38;;
4694;SDS011;2361;49.540;8.390;2024-02-28T04:19:49;32.65;;;16.80;;
4694;SDS011;2361;49.540;8.390;2024-02-28T04:22:10;31.83;;;16.15;;
4694;SDS011;2361;49.540;8.390;2024-02-28T04:24:32;32.63;;;16.63;;
4694;SDS011;2361;49.540;8.390;2024-02-28T04:26:54;33.00;;;15.90;;
4694;SDS011;2361;49.540;8.390;2024-02-28T04:29:17;33.90;;;16.42;;
4694;SDS011;2361;49.540;8.390;2024-02-28T04:31:39;33.10;;;15.83;;
4694;SDS011;2361;49.540;8.390;2024-02-28T04:34:01;29.10;;;15.25;;
4694;SDS011;2361;49.540;8.390;2024-02-28T04:36:24;32.65;;;15.70;;
4694;SDS011;2361;49.540;8.390;2024-02-28T04:38:46;30.55;;;16.17;;
4694;SDS011;2361;49.540;8.390;2024-02-28T04:41:08;31.35;;;15.80;;
4694;SDS011;2361;49.540;8.390;2024-02-28T04:43:30;31.25;;;15.80;;
4694;SDS011;2361;49.540;8.390;2024-02-28T04:45:51;31.65;;;15.07;;
4694;SDS011;2361;49.540;8.390;2024-02-28T04:48:17;31.17;;;15.10;;
4694;SDS011;2361;49.540;8.390;2024-02-28T04:50:44;32.78;;;16.45;;
4694;SDS011;2361;49.540;8.390;2024-02-28T04:53:09;32.47;;;16.17;;
4694;SDS011;2361;49.540;8.390;2024-02-28T04:55:31;32.67;;;16.20;;
4694;SDS011;2361;49.540;8.390;2024-02-28T04:57:53;33.53;;;16.20;;
4694;SDS011;2361;49.540;8.390;2024-02-28T05:00:15;33.07;;;16.43;;
4694;SDS011;2361;49.540;8.390;2024-02-28T05:02:38;34.38;;;16.63;;
4694;SDS011;2361;49.540;8.390;2024-02-28T05:05:00;35.55;;;17.50;;
4694;SDS011;2361;49.540;8.390;2024-02-28T05:07:22;35.97;;;17.35;;
4694;SDS011;2361;49.540;8.390;2024-02-28T05:09:44;34.03;;;16.93;;
4694;SDS011;2361;49.540;8.390;2024-02-28T05:12:07;33.45;;;17.23;;
4694;SDS011;2361;49.540;8.390;2024-02-28T05:14:29;37.95;;;17.98;;
4694;SDS011;2361;49.540;8.390;2024-02-28T05:16:51;35.78;;;17.13;;
4694;SDS011;2361;49.540;8.390;2024-02-28T05:19:13;34.97;;;17.80;;
4694;SDS011;2361;49.540;8.390;2024-02-28T05:21:41;35.08;;;17.00;;
4694;SDS011;2361;49.540;8.390;2024-02-28T05:24:03;34.97;;;17.85;;
4694;SDS011;2361;49.540;8.390;2024-02-28T05:26:29;37.70;;;18.00;;
4694;SDS011;2361;49.540;8.390;2024-02-28T05:28:52;35.80;;;17.80;;
4694;SDS011;2361;49.540;8.390;2024-02-28T05:31:24;34.58;;;17.30;;
4694;SDS011;2361;49.540;8.390;2024-02-28T05:33:47;40.90;;;18.10;;
4694;SDS011;2361;49.540;8.390;2024-02-28T05:36:13;39.00;;;18.23;;
4694;SDS011;2361;49.540;8.390;2024-02-28T05:38:35;36.60;;;17.37;;
4694;SDS011;2361;49.540;8.390;2024-02-28T05:40:57;37.30;;;17.60;;
4694;SDS011;2361;49.540;8.390;2024-02-28T05:43:19;40.92;;;18.40;;
4694;SDS011;2361;49.540;8.390;2024-02-28T05:45:41;40.58;;;18.70;;
4694;SDS011;2361;49.540;8.390;2024-02-28T05:48:03;37.88;;;18.40;;
4694;SDS011;2361;49.540;8.390;2024-02-28T05:50:25;37.03;;;18.60;;
4694;SDS011;2361;49.540;8.390;2024-02-28T05:52:47;39.40;;;19.45;;
4694;SDS011;2361;49.540;8.390;2024-02-28T05:55:09;36.20;;;18.85;;
4694;SDS011;2361;49.540;8.390;2024-02-28T05:57:32;35.97;;;18.20;;
4694;SDS011;2361;49.540;8.390;2024-02-28T05:59:54;39.90;;;19.80;;
4694;SDS011;2361;49.540;8.390;2024-02-28T06:02:16;38.42;;;18.90;;
4694;SDS011;2361;49.540;8.390;2024-02-28T06:04:37;37.58;;;19.20;;
4694;SDS011;2361;49.540;8.390;2024-02-28T06:06:59;38.22;;;19.08;;
4694;SDS011;2361;49.540;8.390;2024-02-28T06:09:22;38.03;;;18.58;;
4694;SDS011;2361;49.540;8.390;2024-02-28T06:11:44;38.38;;;18.67;;
4694;SDS011;2361;49.540;8.390;2024-02-28T06:14:06;38.03;;;18.60;;
4694;SDS011;2361;49.540;8.390;2024-02-28T06:16:28;38.00;;;19.23;;
4694;SDS011;2361;49.540;8.390;2024-02-28T06:18:50;39.05;;;18.80;;
4694;SDS011;2361;49.540;8.390;2024-02-28T06:21:13;40.47;;;19.52;;
4694;SDS011;2361;49.540;8.390;2024-02-28T06:23:35;41.40;;;21.30;;
4694;SDS011;2361;49.540;8.390;2024-02-28T06:25:57;41.85;;;21.05;;
4694;SDS011;2361;49.540;8.390;2024-02-28T06:28:19;39.50;;;21.33;;
4694;SDS011;2361;49.540;8.390;2024-02-28T06:30:45;43.60;;;22.00;;
4694;SDS011;2361;49.540;8.390;2024-02-28T06:33:07;39.60;;;19.77;;
4694;SDS011;2361;49.540;8.390;2024-02-28T06:35:30;39.63;;;19.07;;
4694;SDS011;2361;49.540;8.390;2024-02-28T06:37:52;38.47;;;18.42;;
4694;SDS011;2361;49.540;8.390;2024-02-28T06:40:14;38.80;;;18.93;;
4694;SDS011;2361;49.540;8.390;2024-02-28T06:42:36;39.22;;;18.38;;
4694;SDS011;2361;49.540;8.390;2024-02-28T06:44:58;41.20;;;20.40;;
4694;SDS011;2361;49.540;8.390;2024-02-28T06:47:20;39.65;;;20.35;;
4694;SDS011;2361;49.540;8.390;2024-02-28T06:49:42;40.25;;;19.50;;
4694;SDS011;2361;49.540;8.390;2024-02-28T06:52:04;36.30;;;18.40;;
4694;SDS011;2361;49.540;8.390;2024-02-28T06:54:27;38.25;;;17.77;;
4694;SDS011;2361;49.540;8.390;2024-02-28T06:56:49;35.58;;;18.50;;
4694;SDS011;2361;49.540;8.390;2024-02-28T06:59:11;34.25;;;17.63;;
4694;SDS011;2361;49.540;8.390;2024-02-28T07:01:33;34.17;;;16.90;;
4694;SDS011;2361;49.540;8.390;2024-02-28T07:03:55;36.85;;;17.80;;
4694;SDS011;2361;49.540;8.390;2024-02-28T07:06:17;34.73;;;18.40;;
4694;SDS011;2361;49.540;8.390;2024-02-28T07:08:39;37.05;;;18.20;;
4694;SDS011;2361;49.540;8.390;2024-02-28T07:11:01;36.78;;;17.90;;
4694;SDS011;2361;49.540;8.390;2024-02-28T07:13:23;34.42;;;18.35;;
4694;SDS011;2361;49.540;8.390;2024-02-28T07:15:46;32.78;;;17.75;;
4694;SDS011;2361;49.540;8.390;2024-02-28T07:18:10;36.85;;;19.05;;
4694;SDS011;2361;49.540;8.390;2024-02-28T07:20:32;36.22;;;20.10;;
4694;SDS011;2361;49.540;8.390;2024-02-28T07:22:54;34.67;;;18.30;;
4694;SDS011;2361;49.540;8.390;2024-02-28T07:25:16;33.58;;;17.13;;
4694;SDS011;2361;49.540;8.390;2024-02-28T07:27:40;34.55;;;17.77;;
4694;SDS011;2361;49.540;8.390;2024-02-28T07:30:02;34.05;;;16.70;;
4694;SDS011;2361;49.540;8.390;2024-02-28T07:32:24;33.83;;;17.40;;
4694;SDS011;2361;49.540;8.390;2024-02-28T07:34:46;36.37;;;18.10;;
4694;SDS011;2361;49.540;8.390;2024-02-28T07:37:10;32.05;;;17.70;;
4694;SDS011;2361;49.540;8.390;2024-02-28T07:39:33;31.98;;;17.85;;
4694;SDS011;2361;49.540;8.390;2024-02-28T07:41:55;34.63;;;17.38;;
4694;SDS011;2361;49.540;8.390;2024-02-28T07:44:17;30.92;;;17.00;;
4694;SDS011;2361;49.540;8.390;2024-02-28T07:46:40;32.25;;;18.00;;
4694;SDS011;2361;49.540;8.390;2024-02-28T07:49:03;33.53;;;18.38;;
4694;SDS011;2361;49.540;8.390;2024-02-28T07:51:25;31.55;;;17.80;;
4694;SDS011;2361;49.540;8.390;2024-02-28T07:53:47;32.65;;;18.58;;
4694;SDS011;2361;49.540;8.390;2024-02-28T07:56:16;30.83;;;17.10;;
4694;SDS011;2361;49.540;8.390;2024-02-28T07:58:39;34.07;;;20.50;;
4694;SDS011;2361;49.540;8.390;2024-02-28T08:01:01;33.43;;;18.53;;
4694;SDS011;2361;49.540;8.390;2024-02-28T08:03:24;32.45;;;18.67;;
4694;SDS011;2361;49.540;8.390;2024-02-28T08:05:46;32.70;;;18.13;;
4694;SDS011;2361;49.540;8.390;2024-02-28T08:08:10;33.25;;;18.50;;
4694;SDS011;2361;49.540;8.390;2024-02-28T08:10:32;29.83;;;16.52;;
4694;SDS011;2361;49.540;8.390;2024-02-28T08:12:54;32.05;;;17.25;;
4694;SDS011;2361;49.540;8.390;2024-02-28T08:15:16;28.15;;;16.55;;
4694;SDS011;2361;49.540;8.390;2024-02-28T08:17:38;28.23;;;15.75;;
4694;SDS011;2361;49.540;8.390;2024-02-28T08:20:00;29.35;;;16.52;;
4694;SDS011;2361;49.540;8.390;2024-02-28T08:22:22;29.10;;;17.80;;
4694;SDS011;2361;49.540;8.390;2024-02-28T08:24:46;29.98;;;17.35;;
4694;SDS011;2361;49.540;8.390;2024-02-28T08:27:08;28.00;;;16.48;;
4694;SDS011;2361;49.540;8.390;2024-02-28T08:29:30;29.38;;;17.52;;
4694;SDS011;2361;49.540;8.390;2024-02-28T08:31:53;30.02;;;17.60;;
4694;SDS011;2361;49.540;8.390;2024-02-28T08:34:15;31.02;;;17.95;;
4694;SDS011;2361;49.540;8.390;2024-02-28T08:36:39;28.98;;;17.02;;
4694;SDS011;2361;49.540;8.390;2024-02-28T08:39:01;32.58;;;17.45;;
4694;SDS011;2361;49.540;8.390;2024-02-28T08:41:25;32.80;;;18.27;;
4694;SDS011;2361;49.540;8.390;2024-02-28T08:43:47;30.45;;;16.35;;
4694;SDS011;2361;49.540;8.390;2024-02-28T08:46:09;31.75;;;18.67;;
4694;SDS011;2361;49.540;8.390;2024-02-28T08:48:37;31.40;;;17.90;;
4694;SDS011;2361;49.540;8.390;2024-02-28T08:50:59;30.75;;;19.08;;
4694;SDS011;2361;49.540;8.390;2024-02-28T08:53:21;35.72;;;18.65;;
4694;SDS011;2361;49.540;8.390;2024-02-28T08:55:43;32.63;;;17.50;;
4694;SDS011;2361;49.540;8.390;2024-02-28T08:58:05;31.45;;;18.95;;
4694;SDS011;2361;49.540;8.390;2024-02-28T09:00:27;31.83;;;19.05;;
4694;SDS011;2361;49.540;8.390;2024-02-28T09:02:49;33.92;;;19.35;;
4694;SDS011;2361;49.540;8.390;2024-02-28T09:05:11;31.77;;;18.13;;
4694;SDS011;2361;49.540;8.390;2024-02-28T09:07:33;32.25;;;18.48;;
4694;SDS011;2361;49.540;8.390;2024-02-28T09:09:56;30.15;;;17.67;;
4694;SDS011;2361;49.540;8.390;2024-02-28T09:12:18;32.75;;;20.10;;
4694;SDS011;2361;49.540;8.390;2024-02-28T09:14:40;33.38;;;19.40;;
4694;SDS011;2361;49.540;8.390;2024-02-28T09:17:03;29.03;;;18.03;;
4694;SDS011;2361;49.540;8.390;2024-02-28T09:19:25;28.77;;;19.77;;
4694;SDS011;2361;49.540;8.390;2024-02-28T09:21:47;30.95;;;18.40;;
4694;SDS011;2361;49.540;8.390;2024-02-28T09:24:09;31.17;;;18.80;;
4694;SDS011;2361;49.540;8.390;2024-02-28T09:26:31;29.52;;;19.85;;
4694;SDS011;2361;49.540;8.390;2024-02-28T09:28:53;34.35;;;19.20;;
4694;SDS011;2361;49.540;8.390;2024-02-28T09:31:15;28.85;;;19.75;;
4694;SDS011;2361;49.540;8.390;2024-02-28T09:33:39;29.58;;;20.38;;
4694;SDS011;2361;49.540;8.390;2024-02-28T09:36:01;29.65;;;19.08;;
4694;SDS011;2361;49.540;8.390;2024-02-28T09:38:24;29.80;;;19.50;;
4694;SDS011;2361;49.540;8.390;2024-02-28T09:40:46;27.97;;;21.10;;
4694;SDS011;2361;49.540;8.390;2024-02-28T09:43:15;27.63;;;17.30;;
4694;SDS011;2361;49.540;8.390;2024-02-28T09:45:42;28.77;;;19.25;;
4694;SDS011;2361;49.540;8.390;2024-02-28T09:48:07;26.88;;;18.80;;
4694;SDS011;2361;49.540;8.390;2024-02-28T09:50:31;28.45;;;18.95;;
4694;SDS011;2361;49.540;8.390;2024-02-28T09:52:54;26.85;;;18.33;;
4694;SDS011;2361;49.540;8.390;2024-02-28T09:55:25;27.85;;;17.60;;
4694;SDS011;2361;49.540;8.390;2024-02-28T09:57:48;25.52;;;16.90;;
4694;SDS011;2361;49.540;8.390;2024-02-28T10:00:11;27.55;;;17.92;;
4694;SDS011;2361;49.540;8.390;2024-02-28T10:02:34;28.15;;;19.00;;
4694;SDS011;2361;49.540;8.390;2024-02-28T10:04:57;24.80;;;18.83;;
4694;SDS011;2361;49.540;8.390;2024-02-28T10:07:20;26.23;;;16.75;;
4694;SDS011;2361;49.540;8.390;2024-02-28T10:09:43;24.67;;;17.30;;
4694;SDS011;2361;49.540;8.390;2024-02-28T10:12:05;22.08;;;15.32;;
4694;SDS011;2361;49.540;8.390;2024-02-28T10:14:27;24.92;;;16.15;;
4694;SDS011;2361;49.540;8.390;2024-02-28T10:16:49;25.58;;;18.27;;
4694;SDS011;2361;49.540;8.390;2024-02-28T10:19:12;22.20;;;15.00;;
4694;SDS011;2361;49.540;8.390;2024-02-28T10:21:34;24.10;;;17.50;;
4694;SDS011;2361;49.540;8.390;2024-02-28T10:23:57;23.70;;;17.38;;
4694;SDS011;2361;49.540;8.390;2024-02-28T10:26:23;22.55;;;15.80;;
4694;SDS011;2361;49.540;8.390;2024-02-28T10:28:45;22.58;;;16.95;;
4694;SDS011;2361;49.540;8.390;2024-02-28T10:31:07;21.42;;;15.52;;
4694;SDS011;2361;49.540;8.390;2024-02-28T10:33:29;22.05;;;15.90;;
4694;SDS011;2361;49.540;8.390;2024-02-28T10:35:54;22.87;;;16.60;;
4694;SDS011;2361;49.540;8.390;2024-02-28T10:38:17;21.30;;;15.90;;
4694;SDS011;2361;49.540;8.390;2024-02-28T10:40:42;20.10;;;14.95;;
4694;SDS011;2361;49.540;8.390;2024-02-28T10:43:04;22.13;;;14.30;;
4694;SDS011;2361;49.540;8.390;2024-02-28T10:45:30;21.63;;;15.20;;
4694;SDS011;2361;49.540;8.390;2024-02-28T10:48:09;21.08;;;14.90;;
4694;SDS011;2361;49.540;8.390;2024-02-28T10:50:32;21.20;;;15.00;;
4694;SDS011;2361;49.540;8.390;2024-02-28T10:52:54;22.17;;;14.98;;
4694;SDS011;2361;49.540;8.390;2024-02-28T10:55:25;21.30;;;15.20;;
4694;SDS011;2361;49.540;8.390;2024-02-28T10:57:48;24.25;;;14.95;;
4694;SDS011;2361;49.540;8.390;2024-02-28T11:00:18;23.70;;;15.68;;
4694;SDS011;2361;49.540;8.390;2024-02-28T11:02:40;21.70;;;14.05;;
4694;SDS011;2361;49.540;8.390;2024-02-28T11:05:04;25.60;;;14.35;;
4694;SDS011;2361;49.540;8.390;2024-02-28T11:07:27;23.67;;;13.95;;
4694;SDS011;2361;49.540;8.390;2024-02-28T11:09:54;22.60;;;13.68;;
4694;SDS011;2361;49.540;8.390;2024-02-28T11:12:26;21.67;;;13.05;;
4694;SDS011;2361;49.540;8.390;2024-02-28T11:14:55;23.17;;;13.35;;
4694;SDS011;2361;49.540;8.390;2024-02-28T11:17:26;22.48;;;13.60;;
4694;SDS011;2361;49.540;8.390;2024-02-28T11:19:49;23.43;;;13.43;;
4694;SDS011;2361;49.540;8.390;2024-02-28T11:22:13;23.13;;;13.65;;
4694;SDS011;2361;49.540;8.390;2024-02-28T11:24:35;22.25;;;12.13;;
4694;SDS011;2361;49.540;8.390;2024-02-28T11:26:58;21.58;;;12.18;;
4694;SDS011;2361;49.540;8.390;2024-02-28T11:29:27;20.90;;;12.38;;
4694;SDS011;2361;49.540;8.390;2024-02-28T11:31:50;22.42;;;12.20;;
4694;SDS011;2361;49.540;8.390;2024-02-28T11:34:13;20.17;;;12.43;;
4694;SDS011;2361;49.540;8.390;2024-02-28T11:36:35;16.77;;;10.38;;
4694;SDS011;2361;49.540;8.390;2024-02-28T11:38:57;20.98;;;11.50;;
4694;SDS011;2361;49.540;8.390;2024-02-28T11:41:27;19.83;;;11.23;;
4694;SDS011;2361;49.540;8.390;2024-02-28T11:43:49;21.35;;;11.73;;
4694;SDS011;2361;49.540;8.390;2024-02-28T11:46:12;21.00;;;12.10;;
4694;SDS011;2361;49.540;8.390;2024-02-28T11:48:34;19.02;;;11.18;;
4694;SDS011;2361;49.540;8.390;2024-02-28T11:50:56;19.60;;;10.20;;
4694;SDS011;2361;49.540;8.390;2024-02-28T11:53:20;18.50;;;9.80;;
4694;SDS011;2361;49.540;8.390;2024-02-28T11:55:42;18.10;;;9.50;;
4694;SDS011;2361;49.540;8.390;2024-02-28T11:58:07;20.13;;;11.70;;
4694;SDS011;2361;49.540;8.390;2024-02-28T12:00:33;20.67;;;11.00;;
4694;SDS011;2361;49.540;8.390;2024-02-28T12:03:04;18.33;;;9.80;;
4694;SDS011;2361;49.540;8.390;2024-02-28T12:05:29;18.20;;;10.05;;
4694;SDS011;2361;49.540;8.390;2024-02-28T12:07:52;20.30;;;10.95;;
4694;SDS011;2361;49.540;8.390;2024-02-28T12:10:17;19.98;;;10.60;;
4694;SDS011;2361;49.540;8.390;2024-02-28T12:12:39;21.02;;;11.20;;
4694;SDS011;2361;49.540;8.390;2024-02-28T12:15:02;21.17;;;11.03;;
4694;SDS011;2361;49.540;8.390;2024-02-28T12:17:27;19.33;;;11.30;;
4694;SDS011;2361;49.540;8.390;2024-02-28T12:19:49;17.60;;;10.10;;
4694;SDS011;2361;49.540;8.390;2024-02-28T12:22:15;19.10;;;10.50;;
4694;SDS011;2361;49.540;8.390;2024-02-28T12:24:37;19.15;;;10.63;;
4694;SDS011;2361;49.540;8.390;2024-02-28T12:26:59;17.08;;;9.77;;
4694;SDS011;2361;49.540;8.390;2024-02-28T12:29:21;19.77;;;11.07;;
4694;SDS011;2361;49.540;8.390;2024-02-28T12:31:43;17.13;;;9.60;;
4694;SDS011;2361;49.540;8.390;2024-02-28T12:34:05;16.33;;;9.13;;
4694;SDS011;2361;49.540;8.390;2024-02-28T12:36:28;17.10;;;9.38;;
4694;SDS011;2361;49.540;8.390;2024-02-28T12:38:50;16.05;;;9.70;;
4694;SDS011;2361;49.540;8.390;2024-02-28T12:41:13;16.40;;;10.00;;
4694;SDS011;2361;49.540;8.390;2024-02-28T12:43:35;18.80;;;10.10;;
4694;SDS011;2361;49.540;8.390;2024-02-28T12:45:57;17.15;;;9.93;;
4694;SDS011;2361;49.540;8.390;2024-02-28T12:48:20;15.70;;;9.55;;
4694;SDS011;2361;49.540;8.390;2024-02-28T12:50:42;16.65;;;9.38;;
4694;SDS011;2361;49.540;8.390;2024-02-28T12:53:04;15.80;;;9.47;;
4694;SDS011;2361;49.540;8.390;2024-02-28T12:55:27;18.98;;;10.35;;
4694;SDS011;2361;49.540;8.390;2024-02-28T12:57:48;16.95;;;9.75;;
4694;SDS011;2361;49.540;8.390;2024-02-28T13:00:11;18.63;;;10.50;;
4694;SDS011;2361;49.540;8.390;2024-02-28T13:02:34;19.25;;;10.30;;
4694;SDS011;2361;49.540;8.390;2024-02-28T13:04:56;18.83;;;10.50;;
4694;SDS011;2361;49.540;8.390;2024-02-28T13:07:18;20.00;;;10.13;;
4694;SDS011;2361;49.540;8.390;2024-02-28T13:09:42;16.13;;;9.60;;
4694;SDS011;2361;49.540;8.390;2024-02-28T13:12:04;18.10;;;10.20;;
4694;SDS011;2361;49.540;8.390;2024-02-28T13:14:27;18.17;;;10.40;;
4694;SDS011;2361;49.540;8.390;2024-02-28T13:16:49;18.60;;;10.10;;
4694;SDS011;2361;49.540;8.390;2024-02-28T13:19:14;20.47;;;11.50;;
4694;SDS011;2361;49.540;8.390;2024-02-28T13:21:36;17.83;;;10.50;;
4694;SDS011;2361;49.540;8.390;2024-02-28T13:23:58;18.35;;;11.00;;
4694;SDS011;2361;49.540;8.390;2024-02-28T13:26:21;18.70;;;10.40;;
4694;SDS011;2361;49.540;8.390;2024-02-28T13:28:43;21.25;;;10.57;;
4694;SDS011;2361;49.540;8.390;2024-02-28T13:31:09;17.45;;;10.77;;
4694;SDS011;2361;49.540;8.390;2024-02-28T13:33:31;18.60;;;10.20;;
4694;SDS011;2361;49.540;8.390;2024-02-28T13:35:54;18.85;;;10.25;;
4694;SDS011;2361;49.540;8.390;2024-02-28T13:38:16;17.83;;;10.30;;
4694;SDS011;2361;49.540;8.390;2024-02-28T13:40:40;18.20;;;10.73;;
4694;SDS011;2361;49.540;8.390;2024-02-28T13:43:05;18.80;;;10.48;;
4694;SDS011;2361;49.540;8.390;2024-02-28T13:45:28;20.20;;;10.70;;
4694;SDS011;2361;49.540;8.390;2024-02-28T13:47:50;18.83;;;11.23;;
4694;SDS011;2361;49.540;8.390;2024-02-28T13:50:13;19.13;;;10.90;;
4694;SDS011;2361;49.540;8.390;2024-02-28T13:52:35;18.58;;;10.50;;
4694;SDS011;2361;49.540;8.390;2024-02-28T13:54:57;19.67;;;10.23;;
4694;SDS011;2361;49.540;8.390;2024-02-28T13:57:19;17.17;;;9.45;;
4694;SDS011;2361;49.540;8.390;2024-02-28T13:59:41;17.40;;;9.40;;
4694;SDS011;2361;49.540;8.390;2024-02-28T14:02:04;16.20;;;9.05;;
4694;SDS011;2361;49.540;8.390;2024-02-28T14:04:27;15.50;;;8.95;;
4694;SDS011;2361;49.540;8.390;2024-02-28T14:06:49;17.08;;;9.90;;
4694;SDS011;2361;49.540;8.390;2024-02-28T14:09:11;16.52;;;9.45;;
4694;SDS011;2361;49.540;8.390;2024-02-28T14:11:33;16.10;;;9.38;;
4694;SDS011;2361;49.540;8.390;2024-02-28T14:13:55;16.73;;;8.93;;
4694;SDS011;2361;49.540;8.390;2024-02-28T14:16:17;17.40;;;10.23;;
4694;SDS011;2361;49.540;8.390;2024-02-28T14:18:41;16.70;;;9.70;;
4694;SDS011;2361;49.540;8.390;2024-02-28T14:21:03;16.90;;;9.20;;